Time;durP1;ratioP1;P1;durP2;ratioP2;P2;SDS_P1;SDS_P2;PMS_P1;PMS_P2;Temp;Humidity;BMP_temperature;BMP_pressure;BME280_temperature;BME280_humidity;BME280_pressure;Samples;Min_cycle;Max_cycle;Signal;HPM_P1;HPM_P2
2021/08/09 00:02:02;;;;;;;22.20;5.00;;;;;;;14.45;89.22;101343.94;4977077;28;20162;-81
2021/08/09 00:04:28;;;;;;;28.25;4.80;;;;;;;14.39;88.90;101346.56;4978354;28;20053;-81
2021/08/09 00:06:53;;;;;;;28.20;4.55;;;;;;;14.35;89.31;101339.44;4995342;28;20038;-85
2021/08/09 00:09:41;;;;;;;19.90;5.13;;;;;;;14.27;89.88;101343.78;4999008;28;20044;-83
2021/08/09 00:12:07;;;;;;;27.08;4.82;;;;;;;14.27;89.47;101357.00;4998521;28;20027;-82
2021/08/09 00:14:38;;;;;;;19.25;4.05;;;;;;;14.25;89.67;101353.47;4998406;28;20097;-79
2021/08/09 00:17:04;;;;;;;28.35;4.90;;;;;;;14.23;89.80;101355.19;4999204;28;20449;-84
2021/08/09 00:19:50;;;;;;;19.58;4.60;;;;;;;14.28;89.54;101349.09;4993642;28;20010;-84
2021/08/09 00:22:15;;;;;;;20.85;4.35;;;;;;;14.22;89.79;101348.16;4979292;28;20626;-82
2021/08/09 00:24:41;;;;;;;31.90;4.65;;;;;;;14.19;89.99;101359.59;4961880;28;20096;-81
2021/08/09 00:27:07;;;;;;;21.27;4.82;;;;;;;14.18;89.84;101355.19;4985927;28;20040;-80
2021/08/09 00:29:35;;;;;;;18.35;4.05;;;;;;;14.24;89.22;101346.41;4998159;28;20033;-88
2021/08/09 00:32:20;;;;;;;27.17;4.68;;;;;;;14.22;89.50;101348.16;4998847;28;20405;-84
2021/08/09 00:34:47;;;;;;;19.30;4.07;;;;;;;14.21;89.73;101349.91;4998758;28;20025;-85
2021/08/09 00:37:12;;;;;;;29.63;5.15;;;;;;;14.24;89.56;101359.63;4986720;28;20042;-83
2021/08/09 00:39:37;;;;;;;28.63;5.07;;;;;;;14.23;89.99;101353.47;4987987;28;20026;-88
2021/08/09 00:42:03;;;;;;;26.73;4.90;;;;;;;14.24;89.77;101354.34;4981671;28;20155;-80
2021/08/09 00:44:29;;;;;;;25.33;4.88;;;;;;;14.23;89.73;101344.63;4998978;28;20050;-81
2021/08/09 00:47:14;;;;;;;27.13;5.05;;;;;;;14.31;89.34;101342.94;4999360;28;20034;-83
2021/08/09 00:49:40;;;;;;;25.98;4.55;;;;;;;14.36;89.05;101350.94;4999159;28;20038;-80
2021/08/09 00:52:06;;;;;;;26.02;4.78;;;;;;;14.39;88.71;101356.25;4992716;28;20019;-81
2021/08/09 00:54:52;;;;;;;28.00;5.10;;;;;;;14.40;89.11;101347.44;4962113;28;20048;-81
2021/08/09 00:57:18;;;;;;;22.83;4.45;;;;;;;14.41;89.01;101350.09;4978906;28;20386;-83
2021/08/09 01:00:04;;;;;;;23.35;4.65;;;;;;;14.40;89.41;101345.66;4978794;28;20031;-78
2021/08/09 01:02:30;;;;;;;30.48;4.55;;;;;;;14.39;89.07;101346.56;4979207;28;20035;-85
2021/08/09 01:05:17;;;;;;;28.52;4.70;;;;;;;14.39;89.22;101349.22;4979765;28;20026;-80
2021/08/09 01:07:52;;;;;;;23.23;4.30;;;;;;;14.42;88.91;101354.53;4965682;28;20121;-85
2021/08/09 01:11:00;;;;;;;24.35;4.57;;;;;;;14.44;88.55;101354.53;4979614;28;20441;-83
2021/08/09 01:13:52;;;;;;;22.00;3.70;;;;;;;14.44;88.38;101350.09;4976901;28;20043;-85
2021/08/09 01:16:40;;;;;;;18.35;4.32;;;;;;;14.42;88.44;101357.16;4977208;28;20058;-84
2021/08/09 01:19:42;;;;;;;22.33;4.10;;;;;;;14.43;88.02;101353.66;4977590;28;20027;-87
2021/08/09 01:22:30;;;;;;;16.10;3.25;;;;;;;14.47;87.62;101359.84;4973679;28;20050;-84
2021/08/09 01:25:02;;;;;;;23.60;4.05;;;;;;;14.45;87.91;101356.31;4997275;28;20101;-85
2021/08/09 01:27:50;;;;;;;27.33;4.47;;;;;;;14.43;88.13;101363.34;4997856;28;20030;-86
2021/08/09 01:30:40;;;;;;;21.33;4.68;;;;;;;14.43;88.30;101358.94;4997921;28;20023;-84
2021/08/09 01:33:09;;;;;;;19.33;4.20;;;;;;;14.41;88.56;101368.63;4998475;28;20026;-83
2021/08/09 01:35:36;;;;;;;19.10;3.97;;;;;;;14.37;88.56;101366.81;4981584;28;20558;-87
2021/08/09 01:38:03;;;;;;;25.42;4.97;;;;;;;14.38;88.64;101365.06;4978858;28;20045;-81
2021/08/09 01:40:39;;;;;;;21.73;3.85;;;;;;;14.39;88.56;101378.34;4997290;28;20026;-79
2021/08/09 01:43:05;;;;;;;25.67;4.28;;;;;;;14.45;88.15;101362.47;4998140;28;20034;-81
2021/08/09 01:45:34;;;;;;;18.63;4.50;;;;;;;14.45;87.88;101367.78;4998003;28;20045;-80
2021/08/09 01:48:00;;;;;;;24.33;4.07;;;;;;;14.44;88.17;101368.66;4995751;28;20026;-81
2021/08/09 01:50:32;;;;;;;24.45;4.70;;;;;;;14.44;88.14;101376.59;4980846;28;20066;-91
2021/08/09 01:52:58;;;;;;;25.05;4.07;;;;;;;14.45;87.42;101373.06;4997548;28;20018;-83
2021/08/09 01:55:24;;;;;;;25.83;4.75;;;;;;;14.44;87.14;101370.41;4979532;28;20061;-79
2021/08/09 01:57:49;;;;;;;17.98;3.45;;;;;;;14.42;87.25;101378.34;4979324;28;20485;-88
2021/08/09 02:00:16;;;;;;;17.70;3.92;;;;;;;14.40;87.83;101381.84;4997201;28;20018;-93
2021/08/09 02:03:03;;;;;;;30.20;3.78;;;;;;;14.35;87.76;101389.72;4993474;28;20110;-78
2021/08/09 02:05:49;;;;;;;14.45;3.50;;;;;;;14.34;87.33;101387.97;4982007;28;20038;-84
2021/08/09 02:08:16;;;;;;;21.70;4.00;;;;;;;14.35;87.25;101387.09;4996613;28;20038;-77
2021/08/09 02:11:02;;;;;;;22.98;4.07;;;;;;;14.35;87.17;101387.09;4997043;28;20057;-82
2021/08/09 02:14:17;;;;;;;24.10;4.75;;;;;;;14.35;87.03;101389.72;4996451;28;20085;-79
2021/08/09 02:17:13;;;;;;;27.38;4.13;;;;;;;14.37;86.34;101382.72;4997121;28;20101;-84
2021/08/09 02:20:07;;;;;;;22.00;4.80;;;;;;;14.37;86.18;101385.34;4978091;28;20055;-88
2021/08/09 02:23:01;;;;;;;;;;;;;;;14.38;86.17;101394.19;4977607;28;20134;-83
2021/08/09 02:25:51;;;;;;;25.52;4.15;;;;;;;14.34;86.52;101401.22;4959999;28;19917;-85
2021/08/09 02:28:41;;;;;;;21.13;3.28;;;;;;;14.33;86.15;101394.16;4978397;28;20035;-79
2021/08/09 02:31:08;;;;;;;24.70;4.75;;;;;;;14.30;86.40;101394.13;4960881;28;20031;-82
2021/08/09 02:33:34;;;;;;;19.13;4.45;;;;;;;14.25;86.93;101401.13;4993514;28;20377;-83
2021/08/09 02:36:02;;;;;;;21.63;4.05;;;;;;;14.31;86.54;101393.22;4996297;28;20037;-78
2021/08/09 02:39:07;;;;;;;18.63;3.55;;;;;;;14.33;86.24;101388.84;4997970;28;20097;-78
2021/08/09 02:41:38;;;;;;;19.30;3.45;;;;;;;14.34;85.88;101391.50;4996294;28;20488;-81
2021/08/09 02:44:07;;;;;;;19.85;3.45;;;;;;;14.34;86.12;101382.69;4995673;28;20131;-87
2021/08/09 02:47:12;;;;;;;20.65;3.58;;;;;;;14.32;86.02;101387.06;4995854;28;20034;-87
2021/08/09 02:49:46;;;;;;;13.70;3.05;;;;;;;14.30;86.57;101400.28;4996180;28;20037;-80
2021/08/09 02:52:11;;;;;;;;;;;;;;;14.30;86.58;101396.78;4997302;28;20530;-84
2021/08/09 02:54:57;;;;;;;15.35;3.50;;;;;;;14.29;86.50;101394.97;4996296;28;19910;-82
2021/08/09 02:57:42;;;;;;;17.38;3.33;;;;;;;14.26;86.37;101397.59;4993232;28;20035;-83
2021/08/09 03:00:28;;;;;;;14.35;4.00;;;;;;;14.27;86.98;101399.34;4971270;28;20030;-81
2021/08/09 03:02:54;;;;;;;16.02;4.10;;;;;;;14.24;86.85;101399.34;4996326;28;20027;-83
2021/08/09 03:05:19;;;;;;;24.98;4.00;;;;;;;14.20;87.15;101392.25;4995407;28;20084;-80
2021/08/09 03:07:45;;;;;;;19.00;3.90;;;;;;;14.19;87.01;101396.66;4996137;28;20022;-83
2021/08/09 03:10:12;;;;;;;26.05;4.07;;;;;;;14.22;86.84;101391.38;4996375;28;20018;-84
2021/08/09 03:12:38;;;;;;;25.50;5.03;;;;;;;14.23;87.10;101398.47;4996632;28;20030;-81
2021/08/09 03:15:05;;;;;;;19.63;3.83;;;;;;;14.21;87.41;101391.38;4987021;28;20033;-86
2021/08/09 03:17:31;;;;;;;20.70;4.20;;;;;;;14.23;87.19;101402.84;4987388;28;20037;-80
2021/08/09 03:19:57;;;;;;;20.42;3.67;;;;;;;14.21;87.41;101396.66;4975978;28;20478;-83
2021/08/09 03:22:42;;;;;;;15.45;4.38;;;;;;;14.16;87.90;101402.81;4977775;28;20049;-86
2021/08/09 03:25:08;;;;;;;18.38;4.35;;;;;;;14.15;87.84;101410.72;4977941;28;20045;-85
2021/08/09 03:27:33;;;;;;;22.10;4.72;;;;;;;14.19;87.58;101406.34;4977534;28;20027;-82
2021/08/09 03:29:59;;;;;;;17.77;4.20;;;;;;;14.18;87.70;101409.88;4976834;28;20050;-81
2021/08/09 03:32:25;;;;;;;20.35;4.95;;;;;;;14.18;87.97;101412.53;4978704;28;20389;-81
2021/08/09 03:34:51;;;;;;;23.25;4.32;;;;;;;14.19;87.68;101406.34;4991035;28;20053;-86
2021/08/09 03:37:16;;;;;;;26.70;4.10;;;;;;;14.14;87.93;101404.53;4997378;28;20496;-77
2021/08/09 03:39:41;;;;;;;24.80;4.32;;;;;;;14.12;87.96;101406.28;4982911;28;20089;-83
2021/08/09 03:42:07;;;;;;;11.27;4.13;;;;;;;14.11;88.39;101403.63;4979412;28;20110;-84
2021/08/09 03:44:32;;;;;;;26.52;3.92;;;;;;;14.09;88.50;101410.66;4981797;28;20030;-82
2021/08/09 03:46:58;;;;;;;23.48;5.03;;;;;;;14.09;88.55;101406.22;4981663;28;20038;-84
2021/08/09 03:49:26;;;;;;;26.85;4.57;;;;;;;14.11;88.35;101414.22;4994101;28;20027;-80
2021/08/09 03:51:52;;;;;;;27.35;4.05;;;;;;;14.11;88.53;101408.91;5000491;28;20063;-82
2021/08/09 03:54:17;;;;;;;19.65;3.83;;;;;;;14.11;88.24;101406.28;5001206;28;20034;-88
2021/08/09 03:56:43;;;;;;;20.92;4.50;;;;;;;14.13;88.52;101404.50;4995908;28;20037;-85
2021/08/09 03:59:08;;;;;;;20.80;4.70;;;;;;;14.14;88.51;101414.25;4980465;28;20034;-77
2021/08/09 04:01:38;;;;;;;24.05;4.60;;;;;;;14.11;88.99;101411.56;4980690;28;20035;-85
2021/08/09 04:04:24;;;;;;;25.33;4.22;;;;;;;14.10;89.13;101412.44;4979820;28;20030;-83
2021/08/09 04:06:49;;;;;;;22.67;4.90;;;;;;;14.08;88.89;101409.78;4991763;28;20062;-81
2021/08/09 04:09:34;;;;;;;19.95;4.35;;;;;;;14.07;89.22;101410.63;4999354;28;20049;-81
2021/08/09 04:12:00;;;;;;;21.20;4.50;;;;;;;14.07;89.00;101418.56;4999404;28;20037;-87
2021/08/09 04:14:26;;;;;;;22.52;4.47;;;;;;;14.10;89.01;101418.59;4999783;28;20553;-90
2021/08/09 04:16:51;;;;;;;20.95;3.97;;;;;;;14.11;88.70;101420.38;4998837;28;20077;-79
2021/08/09 04:19:17;;;;;;;17.77;4.57;;;;;;;14.14;88.64;101422.19;4990821;28;20109;-89
2021/08/09 04:21:42;;;;;;;19.20;4.43;;;;;;;14.13;88.83;101421.31;4978854;28;20070;-79
2021/08/09 04:24:08;;;;;;;25.05;4.35;;;;;;;14.13;88.56;101429.25;4979758;28;20031;-85
2021/08/09 04:26:33;;;;;;;21.52;4.05;;;;;;;14.12;88.57;101422.16;4980165;28;20023;-87
2021/08/09 04:29:19;;;;;;;27.92;4.40;;;;;;;14.12;88.51;101427.47;4980667;28;20034;-81
2021/08/09 04:31:44;;;;;;;17.35;4.25;;;;;;;14.12;88.65;101432.75;4980013;28;20124;-84
2021/08/09 04:34:29;;;;;;;20.67;4.10;;;;;;;14.17;88.47;101432.78;4987118;28;20030;-82
2021/08/09 04:36:55;;;;;;;14.15;3.70;;;;;;;14.18;88.26;101425.75;4989971;28;20101;-84
2021/08/09 04:39:20;;;;;;;20.20;3.92;;;;;;;14.18;88.15;101420.47;5000834;28;20045;-85
2021/08/09 04:41:46;;;;;;;23.80;4.25;;;;;;;14.18;88.22;101428.41;4999904;28;20519;-86
2021/08/09 04:44:13;;;;;;;17.08;3.60;;;;;;;14.23;87.76;101429.31;4999099;28;20030;-85
2021/08/09 04:46:39;;;;;;;18.50;3.28;;;;;;;14.27;87.17;101425.84;4999312;28;20050;-85
2021/08/09 04:49:05;;;;;;;20.10;5.10;;;;;;;14.30;86.75;101431.19;4999122;28;20053;-85
2021/08/09 04:51:30;;;;;;;19.05;3.22;;;;;;;14.32;86.39;101425.03;4981427;28;20394;-86
2021/08/09 04:53:56;;;;;;;20.92;3.70;;;;;;;14.38;86.39;101431.25;4998447;28;20086;-82
2021/08/09 04:56:21;;;;;;;21.70;3.40;;;;;;;14.41;86.20;101426.88;4998258;28;20062;-83
2021/08/09 04:58:46;;;;;;;12.85;2.70;;;;;;;14.41;86.00;101433.94;4997915;28;20027;-79
2021/08/09 05:01:12;;;;;;;16.33;2.88;;;;;;;14.42;86.06;101436.59;4980442;28;20034;-78
2021/08/09 05:03:39;;;;;;;11.68;2.35;;;;;;;14.44;85.85;101432.19;4998089;28;20022;-79
2021/08/09 05:06:24;;;;;;;24.33;3.25;;;;;;;14.45;85.62;101431.31;5000790;28;20363;-88
2021/08/09 05:08:50;;;;;;;16.83;3.15;;;;;;;14.47;85.68;101432.25;4991719;28;20030;-84
2021/08/09 05:11:35;;;;;;;17.23;3.90;;;;;;;14.52;85.45;101431.41;4996434;28;20038;-83
2021/08/09 05:14:03;;;;;;;15.27;3.25;;;;;;;14.56;85.25;101433.22;4997584;28;20034;-80
2021/08/09 05:16:32;;;;;;;14.18;3.28;;;;;;;14.62;85.40;101428.84;4998694;28;20389;-81
2021/08/09 05:19:01;;;;;;;16.17;3.03;;;;;;;14.69;84.71;101424.53;4997195;28;20026;-82
2021/08/09 05:21:27;;;;;;;14.50;3.10;;;;;;;14.79;84.17;101418.44;4986885;28;20101;-83
2021/08/09 05:23:52;;;;;;;13.30;2.85;;;;;;;14.82;84.22;101426.38;4996646;28;20034;-80
2021/08/09 05:26:18;;;;;;;29.17;3.72;;;;;;;14.90;84.03;101428.25;4960827;28;20038;-83
2021/08/09 05:28:43;;;;;;;15.82;3.03;;;;;;;14.99;83.56;101425.66;4991772;28;20100;-82
2021/08/09 05:31:09;;;;;;;10.25;2.85;;;;;;;15.07;84.08;101423.06;4997694;28;20113;-78
2021/08/09 05:33:34;;;;;;;17.33;3.67;;;;;;;15.14;83.15;101423.13;4996929;28;20474;-80
2021/08/09 05:36:00;;;;;;;15.40;2.53;;;;;;;15.25;83.03;101427.63;4997975;28;20030;-81
2021/08/09 05:38:25;;;;;;;13.57;2.47;;;;;;;15.31;83.02;101436.50;4995961;28;20041;-87
2021/08/09 05:40:51;;;;;;;13.43;2.65;;;;;;;15.36;82.05;101436.50;4997581;28;20045;-82
2021/08/09 05:43:36;;;;;;;23.63;3.65;;;;;;;15.40;82.64;101440.97;4997656;28;20113;-84
2021/08/09 05:46:02;;;;;;;16.05;2.42;;;;;;;15.41;82.51;101440.09;4977663;28;20034;-88
2021/08/09 05:48:27;;;;;;;13.45;3.05;;;;;;;15.41;82.71;101447.13;4960653;28;20039;-82
2021/08/09 05:50:52;;;;;;;16.40;3.10;;;;;;;15.41;82.39;101448.03;4978089;28;20054;-83
2021/08/09 05:53:18;;;;;;;13.43;3.15;;;;;;;15.39;82.53;101452.44;4978435;28;20031;-80
2021/08/09 05:55:44;;;;;;;15.68;2.80;;;;;;;15.33;83.21;101447.13;4989484;28;20101;-78
2021/08/09 05:58:10;;;;;;;17.30;3.15;;;;;;;15.27;83.32;101449.72;4997131;28;20030;-82
2021/08/09 06:00:35;;;;;;;19.13;3.67;;;;;;;15.26;83.59;101454.13;4971029;28;20062;-82
2021/08/09 06:03:00;;;;;;;13.73;2.88;;;;;;;15.32;82.94;101455.94;4998452;28;20023;-83
2021/08/09 06:05:27;;;;;;;13.32;2.60;;;;;;;15.29;82.81;101458.56;4984046;28;20035;-82
2021/08/09 06:07:53;;;;;;;17.13;3.45;;;;;;;15.32;83.31;101458.59;4993641;28;20035;-82
2021/08/09 06:10:20;;;;;;;16.40;2.70;;;;;;;15.30;83.09;101455.03;4989680;28;20037;-80
2021/08/09 06:12:45;;;;;;;17.80;3.00;;;;;;;15.32;83.02;101458.59;4986772;28;20038;-79
2021/08/09 06:15:11;;;;;;;15.20;2.47;;;;;;;15.56;81.65;101459.59;4984352;28;20138;-80
2021/08/09 06:17:36;;;;;;;11.50;2.50;;;;;;;15.74;81.79;101451.75;4974314;28;20030;-85
2021/08/09 06:20:22;;;;;;;6.82;2.15;;;;;;;15.94;80.25;101445.66;4977502;28;20101;-80
2021/08/09 06:22:47;;;;;;;12.60;2.97;;;;;;;16.19;79.26;101436.03;4963246;28;20058;-81
2021/08/09 06:25:13;;;;;;;12.48;3.30;;;;;;;16.78;77.18;101433.47;4963887;28;20031;-84
2021/08/09 06:27:40;;;;;;;11.10;2.35;;;;;;;17.44;74.47;101428.09;4968959;28;20026;-82
2021/08/09 06:30:26;;;;;;;13.63;2.08;;;;;;;18.03;70.99;101430.59;4972639;28;20474;-82
2021/08/09 06:32:52;;;;;;;6.88;1.77;;;;;;;18.41;70.35;101424.16;4955934;29;20045;-80
2021/08/09 06:35:17;;;;;;;13.18;3.22;;;;;;;18.61;68.91;101417.78;4966662;28;20113;-81
2021/08/09 06:37:42;;;;;;;14.77;2.53;;;;;;;18.59;69.39;101420.47;4974052;28;20038;-82
2021/08/09 06:40:08;;;;;;;11.82;2.40;;;;;;;18.23;69.45;101425.16;4976945;28;20015;-79
2021/08/09 06:42:54;;;;;;;12.43;2.00;;;;;;;18.47;68.62;101426.78;4975865;28;20474;-78
2021/08/09 06:45:19;;;;;;;8.05;2.05;;;;;;;18.59;68.65;101424.94;4967556;28;20027;-80
2021/08/09 06:47:46;;;;;;;9.90;2.15;;;;;;;18.80;68.30;101426.53;4962771;28;20023;-83
2021/08/09 06:50:31;;;;;;;11.25;2.60;;;;;;;18.98;68.12;101438.88;4973783;28;20040;-86
2021/08/09 06:52:57;;;;;;;13.30;2.38;;;;;;;19.15;65.13;101425.38;4964685;28;20055;-80
2021/08/09 06:55:24;;;;;;;7.63;1.80;;;;;;;19.18;65.06;101425.31;4947865;28;20066;-81
2021/08/09 06:57:50;;;;;;;13.02;2.10;;;;;;;19.30;65.87;101430.56;4970663;28;20022;-78
2021/08/09 07:00:15;;;;;;;14.27;3.00;;;;;;;19.13;67.88;101437.84;4969812;28;20070;-79
2021/08/09 07:02:41;;;;;;;10.30;2.22;;;;;;;19.74;63.91;101425.63;4961345;28;20059;-83
2021/08/09 07:05:07;;;;;;;11.10;1.95;;;;;;;19.72;65.10;101435.41;4957298;28;20509;-85
2021/08/09 07:07:32;;;;;;;12.13;1.88;;;;;;;19.76;63.75;101421.13;4962771;28;20023;-83
2021/08/09 07:09:59;;;;;;;8.50;1.65;;;;;;;19.09;65.47;101433.44;4965845;28;20298;-83
2021/08/09 07:12:24;;;;;;;7.22;1.77;;;;;;;19.18;66.09;101436.91;4964076;28;20038;-80
2021/08/09 07:15:10;;;;;;;11.90;2.00;;;;;;;18.75;66.71;101433.69;4975911;28;20053;-81
2021/08/09 07:18:01;;;;;;;6.22;1.50;;;;;;;18.63;67.75;101438.22;4973648;28;20082;-85
2021/08/09 07:20:27;;;;;;;7.43;1.80;;;;;;;18.20;69.28;101451.81;4963759;28;20109;-80
2021/08/09 07:22:53;;;;;;;9.52;1.80;;;;;;;17.79;69.80;101448.41;4977640;28;20065;-86
2021/08/09 07:25:38;;;;;;;8.48;2.00;;;;;;;17.33;72.07;101451.19;4976498;28;20085;-77
2021/08/09 07:28:03;;;;;;;6.50;1.63;;;;;;;17.14;73.93;101458.31;4978843;28;20038;-85
2021/08/09 07:30:29;;;;;;;7.32;2.00;;;;;;;16.93;75.25;101464.50;4977712;28;20118;-82
2021/08/09 07:32:55;;;;;;;6.18;1.90;;;;;;;16.97;75.10;101455.66;4975585;28;20431;-84
2021/08/09 07:35:20;;;;;;;6.53;2.13;;;;;;;16.96;75.84;101464.53;4979119;28;20031;-86
2021/08/09 07:37:46;;;;;;;9.93;1.80;;;;;;;16.95;77.53;101468.06;4975832;28;20035;-83
2021/08/09 07:40:32;;;;;;;12.30;2.15;;;;;;;16.90;77.48;101465.44;4967318;28;20057;-83
2021/08/09 07:43:17;;;;;;;12.20;2.55;;;;;;;16.94;77.55;101466.28;4979450;28;20039;-83
2021/08/09 07:45:42;;;;;;;7.28;1.90;;;;;;;17.18;78.20;101470.72;4990614;28;20054;-77
2021/08/09 07:48:08;;;;;;;11.55;2.00;;;;;;;17.56;75.44;101455.59;4985882;28;20030;-81
2021/08/09 07:50:34;;;;;;;9.45;2.10;;;;;;;17.89;75.37;101459.91;4968548;28;20473;-81
2021/08/09 07:52:59;;;;;;;8.40;2.33;;;;;;;18.07;73.12;101460.75;4984855;28;20091;-83
2021/08/09 07:56:08;;;;;;;7.43;1.63;;;;;;;17.95;72.72;101456.38;4974723;28;20038;-85
2021/08/09 07:58:34;;;;;;;8.63;2.03;;;;;;;17.95;72.81;101453.72;4977890;28;20098;-79
2021/08/09 08:00:59;;;;;;;11.05;2.13;;;;;;;17.87;73.59;101449.25;4981495;28;20405;-81
2021/08/09 08:03:25;;;;;;;5.75;2.05;;;;;;;17.76;72.50;101445.75;4975515;28;20038;-82
2021/08/09 08:05:50;;;;;;;13.10;2.53;;;;;;;17.73;73.33;101448.44;4983028;28;20071;-88
2021/08/09 08:08:16;;;;;;;9.93;2.17;;;;;;;17.76;74.23;101450.22;4992128;28;20038;-86
2021/08/09 08:10:41;;;;;;;11.02;2.15;;;;;;;17.99;72.35;101445.69;4982200;28;20026;-79
2021/08/09 08:13:07;;;;;;;9.57;2.33;;;;;;;18.16;73.14;101450.97;4982480;28;20082;-80
2021/08/09 08:15:33;;;;;;;12.10;1.95;;;;;;;18.39;70.96;101441.06;4993250;28;20052;-84
2021/08/09 08:17:58;;;;;;;7.53;1.73;;;;;;;18.84;69.88;101437.19;4984856;28;20362;-80
2021/08/09 08:20:24;;;;;;;8.70;1.95;;;;;;;19.00;68.36;101439.72;4994505;28;20358;-81
2021/08/09 08:22:50;;;;;;;7.75;1.90;;;;;;;19.14;66.75;101421.81;4994478;28;20036;-84
2021/08/09 08:25:18;;;;;;;11.75;2.33;;;;;;;19.35;67.81;101433.16;4994557;28;20029;-84
2021/08/09 08:27:43;;;;;;;8.25;2.28;;;;;;;19.43;70.20;101433.97;4993565;28;20050;-78
2021/08/09 08:30:29;;;;;;;9.48;1.80;;;;;;;19.72;66.31;101427.41;4989098;28;20031;-78
2021/08/09 08:32:54;;;;;;;7.00;2.20;;;;;;;20.14;65.24;101430.44;4981055;28;20037;-81
2021/08/09 08:35:31;;;;;;;8.15;1.95;;;;;;;20.42;62.47;101427.41;4980446;28;20026;-78
2021/08/09 08:37:57;;;;;;;6.90;1.50;;;;;;;20.15;63.00;101428.69;4978415;28;20038;-78
2021/08/09 08:40:24;;;;;;;9.85;2.25;;;;;;;20.17;62.17;101424.19;4979039;28;20103;-85
2021/08/09 08:42:52;;;;;;;11.85;1.77;;;;;;;19.42;64.32;101432.19;4992358;28;20402;-78
2021/08/09 08:45:20;;;;;;;10.63;2.03;;;;;;;19.38;65.17;101438.47;4973087;28;20944;-82
2021/08/09 08:47:47;;;;;;;8.05;1.77;;;;;;;18.99;66.32;101440.63;4992718;28;20117;-80
2021/08/09 08:50:53;;;;;;;9.50;2.05;;;;;;;18.96;66.74;101451.31;4993907;28;20031;-82
2021/08/09 08:53:38;;;;;;;5.95;1.77;;;;;;;18.81;67.78;101455.84;4986412;28;20045;-83
2021/08/09 08:56:06;;;;;;;6.20;1.63;;;;;;;18.63;68.24;101456.00;4982381;28;20077;-81
2021/08/09 08:58:54;;;;;;;8.30;2.22;;;;;;;18.51;68.80;101455.16;4984020;28;20449;-83
2021/08/09 09:01:52;;;;;;;9.20;1.63;;;;;;;18.43;69.23;101457.00;4981593;28;20046;-79
2021/08/09 09:04:32;;;;;;;5.30;1.92;;;;;;;18.44;69.97;101463.22;4987029;28;20038;-85
2021/08/09 09:07:01;;;;;;;4.07;1.80;;;;;;;18.34;69.75;101455.28;4982847;28;20039;-85
2021/08/09 09:09:40;;;;;;;7.88;1.83;;;;;;;18.32;69.89;101458.84;4986417;28;20122;-85
2021/08/09 09:12:27;;;;;;;7.85;1.60;;;;;;;18.44;70.44;101468.56;4983547;28;20367;-85
2021/08/09 09:15:24;;;;;;;4.95;1.90;;;;;;;18.58;70.50;101473.78;4988388;28;20054;-84
2021/08/09 09:17:55;;;;;;;9.63;2.15;;;;;;;18.52;69.33;101466.72;4984702;28;20584;-83
2021/08/09 09:20:43;;;;;;;7.55;2.25;;;;;;;18.32;71.18;101483.72;4986830;28;20179;-87
2021/08/09 09:23:22;;;;;;;6.57;1.60;;;;;;;18.36;71.37;101474.81;4963273;28;20038;-87
2021/08/09 09:25:52;;;;;;;5.18;2.20;;;;;;;18.33;70.12;101465.97;4964858;28;20059;-87
2021/08/09 09:28:33;;;;;;;5.63;2.30;;;;;;;18.47;69.43;101458.75;4964414;28;20103;-81
2021/08/09 09:31:12;;;;;;;5.28;2.28;;;;;;;18.37;70.47;101475.69;4962964;28;20479;-84
2021/08/09 09:33:45;;;;;;;7.80;2.72;;;;;;;18.22;71.16;101479.34;4964226;28;20038;-81
2021/08/09 09:36:28;;;;;;;4.10;1.67;;;;;;;18.19;70.98;101480.22;4958131;28;20027;-83
2021/08/09 09:39:14;;;;;;;6.75;1.92;;;;;;;18.16;72.34;101482.91;4964137;28;20035;-83
2021/08/09 09:41:51;;;;;;;6.80;1.90;;;;;;;18.14;71.72;101481.16;4968070;28;20032;-83
2021/08/09 09:44:24;;;;;;;11.30;2.10;;;;;;;18.13;72.50;101485.56;4960187;28;20064;-79
2021/08/09 09:46:49;;;;;;;4.50;1.95;;;;;;;18.20;71.60;101475.78;4961672;28;20553;-77
2021/08/09 09:50:13;;;;;;;7.03;2.17;;;;;;;18.26;71.22;101480.19;4965877;28;20035;-81
2021/08/09 09:53:15;;;;;;;9.50;2.30;;;;;;;18.43;71.04;101478.31;4965463;28;20483;-79
2021/08/09 09:55:47;;;;;;;5.75;1.83;;;;;;;18.65;70.36;101478.19;4959275;28;20042;-90
2021/08/09 09:58:12;;;;;;;5.72;2.03;;;;;;;18.83;69.05;101475.41;4965176;28;20121;-85
2021/08/09 10:00:44;;;;;;;6.10;2.17;;;;;;;19.03;68.49;101469.03;4965288;28;20055;-82
2021/08/09 10:03:11;;;;;;;2.95;1.35;;;;;;;19.29;67.73;101465.25;4967378;28;20046;-82
2021/08/09 10:06:22;;;;;;;4.97;1.65;;;;;;;19.66;67.92;101467.53;4960900;28;20027;-89
2021/08/09 10:09:10;;;;;;;7.93;2.00;;;;;;;19.45;69.39;101466.88;4962939;28;20122;-81
2021/08/09 10:11:42;;;;;;;5.88;2.22;;;;;;;19.36;68.18;101465.19;4967158;28;20039;-82
2021/08/09 10:14:28;;;;;;;4.68;2.00;;;;;;;19.28;69.19;101469.72;4964156;28;20026;-80
2021/08/09 10:16:53;;;;;;;7.65;2.10;;;;;;;19.08;69.93;101469.88;4953565;28;20441;-85
2021/08/09 10:19:40;;;;;;;6.78;2.20;;;;;;;19.08;69.37;101472.56;4967010;28;20082;-81
2021/08/09 10:22:10;;;;;;;6.65;1.65;;;;;;;18.90;68.00;101462.06;4977997;28;20058;-85
2021/08/09 10:24:59;;;;;;;5.30;1.60;;;;;;;19.20;66.65;101451.09;4985122;28;20030;-84
2021/08/09 10:27:46;;;;;;;10.00;1.90;;;;;;;19.99;66.93;101457.38;4983866;28;20026;-83
2021/08/09 10:30:42;;;;;;;7.32;1.80;;;;;;;20.36;64.29;101448.84;4983986;28;20047;-82
2021/08/09 10:33:49;;;;;;;5.85;2.17;;;;;;;20.96;62.64;101449.75;4979125;28;20509;-90
2021/08/09 10:36:21;;;;;;;7.03;2.38;;;;;;;20.67;63.45;101461.78;4976873;28;20041;-86
2021/08/09 10:39:06;;;;;;;3.03;1.65;;;;;;;20.32;63.07;101450.72;4998111;28;20045;-81
2021/08/09 10:41:36;;;;;;;5.05;1.98;;;;;;;20.33;65.60;101467.63;4996316;28;20077;-85
2021/08/09 10:44:09;;;;;;;6.43;2.55;;;;;;;20.45;64.37;101456.75;4978725;28;20029;-82
2021/08/09 10:46:39;;;;;;;5.47;1.98;;;;;;;20.45;64.21;101455.88;4978937;28;20035;-80
2021/08/09 10:49:28;;;;;;;5.30;1.67;;;;;;;20.37;62.92;101453.31;4978460;28;20031;-84
2021/08/09 10:51:57;;;;;;;5.53;2.55;;;;;;;20.49;62.29;101452.25;4987229;28;20494;-84
2021/08/09 10:54:45;;;;;;;4.93;2.47;;;;;;;20.20;63.33;101445.53;4982782;28;20026;-79
2021/08/09 10:57:43;;;;;;;3.60;2.00;;;;;;;20.08;64.34;101437.69;4987225;28;20393;-87
2021/08/09 11:00:50;;;;;;;7.65;1.75;;;;;;;20.13;62.91;101436.72;4983141;28;20022;-81
2021/08/09 11:03:20;;;;;;;6.40;1.70;;;;;;;20.07;64.14;101436.78;4979785;28;20089;-78
2021/08/09 11:05:51;;;;;;;5.78;1.52;;;;;;;19.86;63.34;101438.84;4989175;28;20030;-86
2021/08/09 11:08:20;;;;;;;4.68;1.60;;;;;;;19.77;64.90;101446.94;4960091;28;20521;-84
2021/08/09 11:11:21;;;;;;;6.25;1.40;;;;;;;20.42;62.81;101454.13;4986971;28;20026;-84
2021/08/09 11:13:46;;;;;;;4.22;1.50;;;;;;;21.56;61.71;101454.91;4962940;28;20038;-80
2021/08/09 11:16:36;;;;;;;6.72;1.48;;;;;;;21.75;59.15;101443.84;4983101;28;20507;-81
2021/08/09 11:19:01;;;;;;;2.75;1.30;;;;;;;20.81;60.35;101461.56;4967946;28;20041;-84
2021/08/09 11:21:28;;;;;;;5.93;1.75;;;;;;;20.55;62.07;101462.84;4988107;28;20417;-83
2021/08/09 11:23:58;;;;;;;3.95;1.40;;;;;;;20.15;62.51;101463.41;4977972;28;20055;-81
2021/08/09 11:26:49;;;;;;;3.08;1.25;;;;;;;19.77;62.34;101460.28;4978985;28;20035;-84
2021/08/09 11:29:57;;;;;;;3.00;1.30;;;;;;;19.45;63.58;101466.88;4977491;28;20031;-83
2021/08/09 11:32:43;;;;;;;5.43;1.65;;;;;;;19.44;63.51;101470.44;4979947;28;20405;-84
2021/08/09 11:35:12;;;;;;;3.00;1.80;;;;;;;19.58;63.49;101477.44;4989276;28;20023;-81
2021/08/09 11:38:13;;;;;;;3.13;1.17;;;;;;;19.56;64.60;101482.78;4976167;28;20028;-85
2021/08/09 11:41:05;;;;;;;2.67;1.40;;;;;;;19.82;64.10;101482.53;4977283;28;20046;-82
2021/08/09 11:43:38;;;;;;;3.58;1.60;;;;;;;20.00;62.34;101475.19;4973954;28;20038;-86
2021/08/09 11:46:08;;;;;;;5.38;1.50;;;;;;;20.54;61.03;101469.13;4965659;28;20063;-85
2021/08/09 11:49:03;;;;;;;3.90;1.20;;;;;;;21.04;58.98;101456.75;4976699;28;20081;-82
2021/08/09 11:51:38;;;;;;;1.63;1.20;;;;;;;22.20;57.51;101451.81;4977614;28;20026;-86
2021/08/09 11:54:10;;;;;;;2.58;1.33;;;;;;;22.32;54.71;101436.38;4987998;28;20481;-80